Time;durP1;ratioP1;P1;durP2;ratioP2;P2;SDS_P1;SDS_P2;PMS_P1;PMS_P2;Temp;Humidity;BMP_temperature;BMP_pressure;BME280_temperature;BME280_humidity;BME280_pressure;Samples;Min_cycle;Max_cycle;Signal;HPM_P1;HPM_P2
2023/10/10 00:01:46;;;;;;;0.65;0.65;;;;;;;7.02;73.89;100618.81;5106838;28;20020;-68
2023/10/10 00:04:12;;;;;;;;;;;;;;;7.07;74.31;100622.31;5091289;28;20107;-68
2023/10/10 00:06:41;;;;;;;0.50;0.50;;;;;;;7.00;74.42;100623.09;5109182;28;20265;-70
2023/10/10 00:09:11;;;;;;;0.70;0.70;;;;;;;6.97;74.51;100616.19;5108881;28;20099;-68
2023/10/10 00:11:43;;;;;;;6.60;0.85;;;;;;;6.96;74.28;100621.34;5109078;28;20024;-69
2023/10/10 00:14:18;;;;;;;0.95;0.60;;;;;;;6.93;74.89;100610.13;5109061;28;20024;-69
2023/10/10 00:16:47;;;;;;;0.45;0.45;;;;;;;6.94;75.21;100611.88;5108847;28;20416;-69
2023/10/10 00:19:19;;;;;;;0.60;0.60;;;;;;;6.99;75.33;100613.63;5108675;28;20024;-69
2023/10/10 00:21:46;;;;;;;1.05;0.88;;;;;;;6.96;75.29;100618.75;5108856;28;20024;-70
2023/10/10 00:24:14;;;;;;;0.82;0.75;;;;;;;6.89;75.45;100610.97;5108417;28;20020;-68
2023/10/10 00:26:42;;;;;;;0.50;0.50;;;;;;;6.86;75.91;100603.19;5090373;28;20028;-69
2023/10/10 00:29:09;;;;;;;0.65;0.47;;;;;;;7.03;75.78;100613.66;5108686;28;20023;-68
2023/10/10 00:31:35;;;;;;;1.38;0.73;;;;;;;7.04;76.43;100599.06;5108445;28;20379;-69
2023/10/10 00:34:00;;;;;;;0.55;0.55;;;;;;;7.14;76.41;100607.75;5089870;28;20550;-69
2023/10/10 00:41:54;;;;;;;0.40;0.40;;;;;;;7.23;76.61;100586.28;5108330;28;20103;-68
2023/10/10 00:44:22;;;;;;;0.40;0.40;;;;;;;7.27;76.63;100598.38;5090355;28;20024;-69
2023/10/10 00:46:55;;;;;;;0.75;0.60;;;;;;;7.24;76.77;100594.06;5108136;28;20020;-69
2023/10/10 00:49:25;;;;;;;0.40;0.40;;;;;;;7.26;76.87;100592.34;5108229;28;20016;-69
2023/10/10 00:51:53;;;;;;;0.85;0.85;;;;;;;7.21;77.13;100582.81;5107916;28;20396;-70
2023/10/10 00:56:55;;;;;;;1.52;1.05;;;;;;;7.25;77.44;100584.59;5108445;28;20056;-68
2023/10/10 00:59:32;;;;;;;1.77;1.20;;;;;;;7.21;77.36;100581.13;5108252;28;20074;-70
2023/10/10 01:01:57;;;;;;;1.95;1.05;;;;;;;7.13;77.28;100567.28;5107935;28;20020;-69
2023/10/10 01:04:57;;;;;;;7.30;0.70;;;;;;;7.17;77.42;100582.81;5107947;28;20077;-68
2023/10/10 01:07:19;;;;;;;0.30;0.30;;;;;;;7.22;77.58;100589.75;5104669;28;20118;-68
2023/10/10 01:09:57;;;;;;;8.77;1.10;;;;;;;7.15;77.35;100581.94;5089603;28;20035;-69
2023/10/10 01:12:35;;;;;;;0.40;0.40;;;;;;;7.09;77.74;100573.28;5107341;28;20016;-68
2023/10/10 01:15:07;;;;;;;1.13;0.55;;;;;;;7.05;78.14;100574.94;5108057;28;20024;-68
2023/10/10 01:17:33;;;;;;;0.30;0.30;;;;;;;7.01;78.42;100570.63;5107734;28;20077;-69
2023/10/10 01:20:14;;;;;;;0.30;0.30;;;;;;;7.03;78.52;100569.78;5107447;28;20020;-69
2023/10/10 01:22:46;;;;;;;2.45;0.55;;;;;;;7.02;78.70;100559.44;5107750;28;20070;-68
2023/10/10 01:25:40;;;;;;;0.40;0.40;;;;;;;7.02;78.98;100560.31;5107889;28;20095;-68
2023/10/10 01:33:25;;;;;;;;;;;;;;;7.08;79.01;100559.50;5107911;28;20084;-68
2023/10/10 01:35:55;;;;;;;0.30;0.30;;;;;;;6.94;79.11;100549.94;5107344;28;19908;-68
2023/10/10 01:38:32;;;;;;;1.85;0.98;;;;;;;6.95;79.29;100553.34;5107287;28;20432;-68
2023/10/10 01:40:58;;;;;;;0.70;0.70;;;;;;;6.91;79.36;100549.03;5107556;28;20046;-68
2023/10/10 01:43:24;;;;;;;0.50;0.50;;;;;;;6.93;79.44;100560.25;5107117;28;20027;-68
2023/10/10 01:46:08;;;;;;;0.40;0.40;;;;;;;6.91;79.25;100565.38;5107168;28;20024;-67
2023/10/10 01:48:43;;;;;;;2.95;1.48;;;;;;;6.96;79.60;100561.97;5107242;28;20028;-68
2023/10/10 01:51:08;;;;;;;1.40;0.85;;;;;;;7.04;79.61;100562.91;5106732;28;20040;-69
2023/10/10 01:53:40;;;;;;;0.30;0.30;;;;;;;7.06;79.53;100566.38;5107238;28;20079;-69
2023/10/10 01:56:08;;;;;;;0.55;0.55;;;;;;;7.09;79.47;100563.81;5107094;28;20459;-69
2023/10/10 01:58:37;;;;;;;10.70;1.13;;;;;;;7.07;79.45;100565.50;5106877;28;20036;-69
2023/10/10 02:01:13;;;;;;;0.88;0.82;;;;;;;7.02;79.57;100567.19;5107036;28;20077;-68
2023/10/10 02:03:43;;;;;;;5.78;0.55;;;;;;;7.00;79.48;100558.56;5106531;28;20020;-67
2023/10/10 02:06:13;;;;;;;0.45;0.40;;;;;;;6.94;79.48;100552.50;5106760;28;20034;-68
2023/10/10 02:08:39;;;;;;;0.73;0.73;;;;;;;6.90;79.43;100555.06;5088471;28;20039;-67
2023/10/10 02:11:06;;;;;;;1.85;0.73;;;;;;;6.82;79.55;100557.56;5088496;28;20016;-68
2023/10/10 02:13:33;;;;;;;0.77;0.57;;;;;;;6.78;79.58;100554.06;5106500;28;20088;-68
2023/10/10 02:16:01;;;;;;;0.60;0.60;;;;;;;6.68;79.89;100532.47;5106550;28;20499;-68
2023/10/10 02:18:40;;;;;;;1.05;0.50;;;;;;;6.78;80.23;100545.47;5106448;28;20020;-68
2023/10/10 02:21:09;;;;;;;0.35;0.35;;;;;;;6.78;80.48;100538.59;5106250;28;20043;-69
2023/10/10 02:23:34;;;;;;;0.30;0.30;;;;;;;6.83;80.54;100530.91;5106132;28;20500;-69
2023/10/10 02:28:48;;;;;;;0.40;0.40;;;;;;;6.75;80.64;100522.22;5106352;28;20058;-70
2023/10/10 02:31:16;;;;;;;1.67;0.68;;;;;;;6.77;80.98;100520.50;5088036;28;20020;-68
2023/10/10 02:34:07;;;;;;;0.40;0.40;;;;;;;6.74;81.47;100515.34;5106243;28;20028;-68
2023/10/10 02:36:31;;;;;;;1.52;0.88;;;;;;;6.77;81.49;100513.63;5105600;28;20077;-68
2023/10/10 02:39:26;;;;;;;0.38;0.38;;;;;;;6.79;81.51;100516.22;5087881;28;20047;-69
2023/10/10 02:41:49;;;;;;;;;;;;;;;6.82;81.36;100514.53;5105788;28;20032;-69
2023/10/10 02:44:38;;;;;;;0.38;0.38;;;;;;;6.72;81.77;100507.56;5106185;28;19915;-69
2023/10/10 02:47:04;;;;;;;0.47;0.47;;;;;;;6.72;81.70;100509.28;5087839;28;20024;-68
2023/10/10 02:49:30;;;;;;;0.70;0.70;;;;;;;6.71;81.63;100512.72;5105816;28;20020;-69
2023/10/10 02:51:56;;;;;;;4.65;0.70;;;;;;;6.68;81.68;100514.41;5105744;28;20047;-68
2023/10/10 02:56:56;;;;;;;1.10;0.95;;;;;;;6.66;81.86;100498.03;5105864;28;20313;-69
2023/10/10 02:59:31;;;;;;;0.50;0.50;;;;;;;6.72;82.12;100506.69;5087317;28;20028;-68
2023/10/10 03:01:59;;;;;;;0.40;0.40;;;;;;;6.70;82.05;100511.84;5105696;28;20024;-69
2023/10/10 03:04:52;;;;;;;0.77;0.70;;;;;;;6.66;82.03;100497.19;5105577;28;20027;-68
2023/10/10 03:07:15;;;;;;;0.77;0.70;;;;;;;6.63;82.10;100507.50;5105044;28;20095;-68
2023/10/10 03:10:06;;;;;;;0.75;0.70;;;;;;;6.60;82.08;100512.63;5105711;28;20020;-68
2023/10/10 03:12:30;;;;;;;0.52;0.38;;;;;;;6.53;82.13;100497.06;5105375;28;20028;-70
2023/10/10 03:15:12;;;;;;;1.38;1.00;;;;;;;6.53;82.19;100501.38;5105578;28;20028;-68
2023/10/10 03:20:34;;;;;;;0.47;0.47;;;;;;;6.47;81.76;100502.16;5105554;28;19919;-68
2023/10/10 03:25:52;;;;;;;0.63;0.63;;;;;;;6.40;81.83;100500.38;5105755;28;20043;-67
2023/10/10 03:31:09;;;;;;;0.50;0.50;;;;;;;6.24;81.81;100478.72;5105356;28;20020;-69
2023/10/10 03:36:13;;;;;;;0.50;0.50;;;;;;;6.31;81.94;100496.00;5104776;28;20044;-69
2023/10/10 05:24:51;;;;;;;1.02;1.02;;;;;;;5.82;83.86;100466.19;5107795;28;20061;-66
2023/10/10 05:27:17;;;;;;;1.08;1.00;;;;;;;5.88;83.95;100471.41;5106931;28;20024;-66
2023/10/10 05:29:43;;;;;;;0.88;0.88;;;;;;;5.85;83.60;100461.06;5106600;28;20077;-66
2023/10/10 05:32:08;;;;;;;1.95;0.85;;;;;;;5.95;83.73;100469.78;5107130;28;20426;-66
2023/10/10 05:34:37;;;;;;;1.52;0.90;;;;;;;6.02;83.86;100473.31;5106591;28;20035;-65
2023/10/10 05:37:03;;;;;;;1.08;0.60;;;;;;;6.13;83.78;100476.91;5106907;28;20026;-64
2023/10/10 05:39:32;;;;;;;0.70;0.63;;;;;;;6.20;83.74;100475.25;5106974;28;20024;-64
2023/10/10 05:41:59;;;;;;;1.25;0.82;;;;;;;6.34;83.73;100478.00;5106894;28;20072;-66
2023/10/10 05:44:25;;;;;;;1.77;0.60;;;;;;;6.41;83.49;100486.63;5107246;28;20024;-65
2023/10/10 05:46:50;;;;;;;1.27;1.17;;;;;;;6.47;83.82;100478.09;5107314;28;20020;-65
2023/10/10 05:49:17;;;;;;;1.02;0.93;;;;;;;6.52;83.69;100484.16;5106872;28;20464;-60
2023/10/10 05:51:42;;;;;;;0.60;0.60;;;;;;;6.55;83.55;100468.72;5081904;28;20045;-65
2023/10/10 05:54:10;;;;;;;3.47;0.73;;;;;;;6.68;83.34;100467.97;5085706;28;20109;-65
2023/10/10 05:56:37;;;;;;;1.10;0.60;;;;;;;6.64;83.04;100463.66;5086482;28;20026;-66
2023/10/10 05:59:03;;;;;;;0.82;0.82;;;;;;;6.69;83.11;100461.94;5086096;28;20035;-66
2023/10/10 06:01:30;;;;;;;0.60;0.60;;;;;;;6.72;83.63;100461.13;5086403;28;20084;-66
2023/10/10 06:03:56;;;;;;;0.50;0.50;;;;;;;6.74;83.84;100450.81;5086521;28;20031;-66
2023/10/10 06:06:21;;;;;;;1.40;1.00;;;;;;;6.75;84.05;100449.97;5086366;28;20043;-66
2023/10/10 06:08:46;;;;;;;2.95;1.20;;;;;;;6.85;84.37;100458.66;5086727;28;20030;-65
2023/10/10 06:11:15;;;;;;;7.07;1.05;;;;;;;6.85;84.33;100462.09;5098174;23;20052;-62
2023/10/10 06:13:43;;;;;;;0.55;0.55;;;;;;;6.85;84.07;100459.53;5106186;28;20075;-62
2023/10/10 06:16:14;;;;;;;0.93;0.88;;;;;;;6.81;83.77;100461.19;5106399;28;20434;-62
2023/10/10 06:18:45;;;;;;;0.50;0.50;;;;;;;6.74;83.63;100453.41;5106424;28;20024;-61
2023/10/10 06:21:11;;;;;;;2.10;1.15;;;;;;;6.71;83.79;100454.22;5105968;28;20500;-63
2023/10/10 06:23:37;;;;;;;0.73;0.73;;;;;;;6.80;84.24;100448.28;5106287;28;20054;-63
2023/10/10 06:26:04;;;;;;;0.50;0.50;;;;;;;6.97;84.24;100442.38;5106491;28;20024;-62
2023/10/10 06:28:35;;;;;;;0.50;0.50;;;;;;;7.09;84.41;100439.91;5106250;28;20020;-66
2023/10/10 06:31:02;;;;;;;4.05;1.25;;;;;;;7.38;84.57;100441.78;5105944;28;20417;-64
2023/10/10 06:33:28;;;;;;;2.10;0.68;;;;;;;7.51;83.93;100441.81;5106198;28;20107;-62
2023/10/10 06:41:38;;;;;;;0.95;0.95;;;;;;;7.58;83.87;100428.09;5105858;28;20054;-61
2023/10/10 06:44:04;;;;;;;1.23;1.13;;;;;;;7.92;82.95;100435.97;5105584;28;20074;-61
2023/10/10 06:46:32;;;;;;;1.10;1.00;;;;;;;7.91;82.96;100430.78;5105223;28;20032;-61
2023/10/10 06:49:04;;;;;;;2.45;0.93;;;;;;;7.86;82.65;100433.34;5105253;28;20032;-60
2023/10/10 06:51:39;;;;;;;;;;;;;;;8.06;82.84;100430.84;5109877;22;20052;-64
2023/10/10 06:54:27;;;;;;;1.10;0.98;;;;;;;8.57;83.57;100433.50;5105726;28;20369;-66
2023/10/10 06:59:26;;;;;;;5.07;1.23;;;;;;;9.86;83.18;100433.22;5105859;28;20036;-68
2023/10/10 07:01:52;;;;;;;0.75;0.60;;;;;;;10.35;82.23;100430.34;5086976;28;20020;-66
2023/10/10 07:04:19;;;;;;;0.70;0.70;;;;;;;10.36;81.03;100435.53;5105041;28;20053;-65
2023/10/10 07:06:45;;;;;;;2.13;1.05;;;;;;;10.57;81.51;100428.47;5105534;28;20020;-65
2023/10/10 07:09:29;;;;;;;1.00;0.90;;;;;;;11.07;81.64;100419.38;5105468;28;20031;-66
2023/10/10 07:12:09;;;;;;;1.45;1.13;;;;;;;11.61;82.05;100410.09;5086568;28;20024;-66
2023/10/10 07:14:40;;;;;;;6.90;1.80;;;;;;;12.11;81.63;100410.31;5087105;28;20051;-67
2023/10/10 07:17:13;;;;;;;1.05;0.80;;;;;;;12.22;80.45;100407.53;5087368;28;20016;-66
2023/10/10 07:21:04;;;;;;;1.17;1.00;;;;;;;11.99;78.03;100406.13;5105427;28;20059;-65
2023/10/10 07:22:41;;;;;;;1.02;0.85;;;;;;;11.66;78.25;100403.13;5091997;28;20036;-66
2023/10/10 07:25:09;;;;;;;0.88;0.73;;;;;;;11.63;78.23;100405.72;5105498;28;20108;-66
2023/10/10 07:27:36;;;;;;;2.92;1.15;;;;;;;11.99;80.33;100405.25;5105496;28;20019;-66
2023/10/10 07:30:18;;;;;;;1.42;1.10;;;;;;;12.49;80.61;100400.19;5104937;28;20020;-67
2023/10/10 07:32:44;;;;;;;0.50;0.50;;;;;;;12.82;78.94;100383.13;5104716;28;20023;-67
2023/10/10 07:35:15;;;;;;;3.88;1.45;;;;;;;13.13;78.95;100386.03;5104939;28;20028;-67
2023/10/10 07:37:44;;;;;;;2.42;1.10;;;;;;;13.25;77.50;100389.28;5105245;28;20099;-67
2023/10/10 07:42:40;;;;;;;1.25;0.90;;;;;;;12.80;76.72;100401.41;5104994;28;20043;-66
2023/10/10 07:45:15;;;;;;;1.55;0.90;;;;;;;13.09;77.57;100399.16;5105426;28;20363;-68
2023/10/10 07:50:34;;;;;;;1.13;0.93;;;;;;;13.48;77.45;100395.78;5104971;28;20044;-67
2023/10/10 07:53:04;;;;;;;6.47;0.63;;;;;;;14.17;76.96;100389.94;5071358;28;20048;-68
2023/10/10 07:55:50;;;;;;;0.90;0.63;;;;;;;14.72;74.71;100392.09;5104974;28;20024;-67
2023/10/10 07:58:16;;;;;;;1.17;0.75;;;;;;;15.00;74.33;100395.72;5105087;28;20020;-67
2023/10/10 08:00:44;;;;;;;0.77;0.77;;;;;;;15.58;73.58;100384.53;5105125;28;20390;-67
2023/10/10 08:03:19;;;;;;;0.70;0.70;;;;;;;16.02;70.63;100390.25;5105060;28;20103;-66
2023/10/10 08:05:48;;;;;;;2.05;0.93;;;;;;;16.19;68.17;100392.31;5104953;28;20035;-66
2023/10/10 08:08:17;;;;;;;3.22;1.30;;;;;;;16.24;67.10;100379.94;5105035;28;20020;-67
2023/10/10 08:10:44;;;;;;;1.55;1.25;;;;;;;16.72;64.95;100374.84;5104944;28;20032;-67
2023/10/10 08:13:14;;;;;;;0.73;0.57;;;;;;;17.16;61.82;100373.34;5105060;28;20384;-68
2023/10/10 08:21:09;;;;;;;0.30;0.30;;;;;;;17.29;57.31;100368.50;5105067;28;20027;-68
2023/10/10 08:23:36;;;;;;;0.90;0.60;;;;;;;16.57;58.38;100381.47;5108469;28;20047;-68
2023/10/10 08:26:01;;;;;;;1.83;0.52;;;;;;;15.96;59.81;100370.28;5109133;28;20172;-67
2023/10/10 08:28:27;;;;;;;0.65;0.50;;;;;;;15.88;60.72;100381.00;5108804;28;20065;-67
2023/10/10 08:30:52;;;;;;;0.57;0.55;;;;;;;15.87;60.26;100376.69;5108673;28;20043;-67
2023/10/10 08:33:18;;;;;;;0.43;0.43;;;;;;;15.96;60.33;100370.28;5108728;28;20020;-67
2023/10/10 08:35:44;;;;;;;1.35;0.52;;;;;;;16.51;59.63;100379.06;5090232;28;20519;-67
2023/10/10 08:38:13;;;;;;;2.22;0.68;;;;;;;17.24;58.55;100366.03;5108543;28;20046;-66
2023/10/10 08:40:40;;;;;;;0.45;0.40;;;;;;;17.21;56.46;100366.16;5108549;28;20022;-66
2023/10/10 08:43:09;;;;;;;0.40;0.30;;;;;;;16.60;56.44;100366.50;5108666;28;20020;-66
2023/10/10 08:45:43;;;;;;;0.70;0.40;;;;;;;15.96;57.82;100365.06;5108461;28;20020;-66
2023/10/10 08:48:12;;;;;;;1.23;0.70;;;;;;;15.48;58.60;100365.63;5108069;28;20028;-67
2023/10/10 08:50:44;;;;;;;1.45;0.63;;;;;;;15.12;59.46;100357.94;5107480;28;20047;-66
2023/10/10 08:53:11;;;;;;;0.77;0.57;;;;;;;15.13;60.24;100364.03;5107957;28;20052;-67
2023/10/10 08:55:38;;;;;;;0.55;0.45;;;;;;;14.95;60.08;100356.66;5108417;28;20028;-68
2023/10/10 08:58:07;;;;;;;0.70;0.40;;;;;;;14.80;60.45;100357.06;5108244;28;20163;-67
2023/10/10 09:00:33;;;;;;;1.75;0.68;;;;;;;14.77;61.03;100357.13;5107913;28;20077;-67
2023/10/10 09:02:59;;;;;;;0.82;0.40;;;;;;;14.76;61.00;100345.81;5089733;28;20016;-68
2023/10/10 09:05:25;;;;;;;0.82;0.38;;;;;;;14.94;61.46;100349.72;5089631;28;20031;-67
2023/10/10 09:07:53;;;;;;;1.90;0.50;;;;;;;15.40;60.63;100345.84;5107920;28;20027;-69
2023/10/10 09:10:28;;;;;;;1.83;0.45;;;;;;;15.54;59.75;100359.38;5107984;28;20024;-66
2023/10/10 09:12:56;;;;;;;2.05;0.80;;;;;;;15.68;59.89;100351.09;5107882;28;20027;-68
2023/10/10 09:15:23;;;;;;;0.82;0.60;;;;;;;15.90;59.74;100353.03;5108025;28;20028;-67
2023/10/10 09:17:49;;;;;;;0.50;0.50;;;;;;;16.27;58.22;100348.41;5107885;28;20476;-66
2023/10/10 09:20:32;;;;;;;0.55;0.30;;;;;;;16.52;58.17;100337.09;5107662;28;20035;-66
2023/10/10 09:23:11;;;;;;;1.38;0.55;;;;;;;16.95;57.48;100345.19;5107803;28;20559;-66
2023/10/10 09:26:08;;;;;;;0.43;0.30;;;;;;;17.30;56.44;100338.75;5089665;28;20028;-67
2023/10/10 09:28:45;;;;;;;2.53;1.00;;;;;;;18.18;54.28;100333.56;5105570;22;20054;-66
2023/10/10 09:31:20;;;;;;;0.20;0.20;;;;;;;18.49;52.77;100337.56;5088340;23;20155;-67
2023/10/10 09:36:19;;;;;;;2.33;0.40;;;;;;;19.78;50.84;100320.38;5084147;28;20041;-62
2023/10/10 09:38:46;;;;;;;0.75;0.40;;;;;;;20.37;49.46;100316.63;5087312;28;20032;-62
2023/10/10 09:50:00;;;;;;;0.40;0.32;;;;;;;21.64;47.83;100312.59;5086536;28;20127;-61
2023/10/10 09:58:00;;;;;;;1.33;0.60;;;;;;;20.39;45.99;100314.78;5068330;28;20107;-62
2023/10/10 10:09:20;;;;;;;1.73;0.88;;;;;;;18.47;48.64;100307.84;5086474;28;20029;-62
2023/10/10 10:12:10;;;;;;;1.55;0.50;;;;;;;17.67;50.01;100308.44;5086655;28;20372;-65
2023/10/10 10:15:06;;;;;;;0.45;0.30;;;;;;;17.15;51.61;100313.94;5086459;28;20037;-64
2023/10/10 10:17:54;;;;;;;0.38;0.28;;;;;;;17.49;52.72;100296.91;5085479;28;20024;-66
2023/10/10 10:20:44;;;;;;;2.42;0.38;;;;;;;17.38;51.07;100297.31;5085685;28;20016;-65
2023/10/10 10:23:17;;;;;;;4.88;0.77;;;;;;;16.65;52.67;100303.44;5084579;28;20028;-65
2023/10/10 10:25:46;;;;;;;1.55;0.70;;;;;;;16.42;54.50;100306.88;5084024;28;20020;-66
2023/10/10 10:28:15;;;;;;;1.75;0.47;;;;;;;16.83;54.89;100286.22;5084182;28;20043;-66
2023/10/10 10:31:16;;;;;;;0.35;0.35;;;;;;;18.05;52.77;100283.31;5083978;28;20047;-64
2023/10/10 10:34:05;;;;;;;0.98;0.60;;;;;;;18.83;50.99;100290.50;5077102;28;20067;-64
2023/10/10 10:36:54;;;;;;;2.22;0.60;;;;;;;18.45;50.41;100292.13;5083908;28;20033;-64
2023/10/10 10:39:25;;;;;;;0.73;0.40;;;;;;;17.50;51.67;100289.88;5085377;28;20027;-64
2023/10/10 10:41:56;;;;;;;0.57;0.38;;;;;;;16.68;53.71;100290.22;5085928;28;20017;-64
2023/10/10 10:44:44;;;;;;;3.75;0.85;;;;;;;16.15;55.52;100301.66;5085602;28;20029;-64
2023/10/10 10:47:34;;;;;;;1.25;0.65;;;;;;;15.73;56.76;100298.59;5084622;28;20108;-64
2023/10/10 10:50:02;;;;;;;0.40;0.40;;;;;;;15.35;58.23;100291.88;5073014;28;20040;-64
2023/10/10 10:52:55;;;;;;;2.85;0.98;;;;;;;14.97;60.43;100301.72;5085238;28;20125;-64
2023/10/10 10:55:29;;;;;;;0.50;0.50;;;;;;;14.66;61.14;100292.97;5067502;28;20361;-63
2023/10/10 10:58:20;;;;;;;0.55;0.50;;;;;;;14.64;62.33;100289.53;5067410;28;20051;-64
2023/10/10 11:03:43;;;;;;;0.75;0.60;;;;;;;15.02;61.42;100291.13;5085434;28;20032;-64
2023/10/10 11:06:10;;;;;;;1.10;0.70;;;;;;;15.24;61.15;100283.50;5085319;28;20021;-64
2023/10/10 11:08:51;;;;;;;7.85;0.82;;;;;;;15.36;60.28;100284.91;5085399;28;20024;-64
2023/10/10 11:13:51;;;;;;;0.80;0.60;;;;;;;15.08;59.93;100286.59;5085374;28;20096;-64
2023/10/10 11:16:17;;;;;;;0.40;0.40;;;;;;;15.08;60.11;100290.97;5067370;28;20024;-63
2023/10/10 11:18:43;;;;;;;0.90;0.60;;;;;;;15.08;60.08;100289.19;5085293;28;20054;-64
2023/10/10 11:21:11;;;;;;;0.75;0.50;;;;;;;15.04;60.14;100281.50;5084685;28;20025;-65
2023/10/10 11:23:43;;;;;;;1.23;0.40;;;;;;;15.03;60.31;100285.00;5084986;28;20025;-65
2023/10/10 11:26:13;;;;;;;0.30;0.30;;;;;;;14.78;60.90;100276.06;5085107;28;20035;-65
2023/10/10 11:28:47;;;;;;;0.40;0.40;;;;;;;14.52;62.38;100274.19;5085217;28;20408;-64
2023/10/10 11:31:14;;;;;;;2.22;0.63;;;;;;;14.34;63.24;100269.44;5085285;28;20557;-64
2023/10/10 11:33:48;;;;;;;0.22;0.22;;;;;;;14.19;63.74;100259.34;5085264;28;20032;-64
2023/10/10 11:36:29;;;;;;;0.50;0.47;;;;;;;14.07;64.12;100269.25;5084839;28;20070;-65
2023/10/10 11:38:56;;;;;;;0.35;0.35;;;;;;;13.98;64.80;100261.63;5085301;28;20055;-64
2023/10/10 11:41:29;;;;;;;0.95;0.52;;;;;;;13.88;65.14;100254.03;5084998;28;20051;-64
2023/10/10 11:44:03;;;;;;;3.10;0.50;;;;;;;13.84;66.27;100249.78;5084951;28;20029;-64
2023/10/10 11:46:30;;;;;;;0.63;0.63;;;;;;;13.76;67.11;100256.94;5085023;28;20048;-64
2023/10/10 11:48:55;;;;;;;4.90;1.17;;;;;;;13.76;67.11;100249.13;5085054;28;20453;-68
2023/10/10 11:51:35;;;;;;;0.85;0.47;;;;;;;13.74;68.25;100256.09;5066628;28;20020;-61
2023/10/10 11:54:00;;;;;;;0.75;0.63;;;;;;;13.69;67.88;100232.75;5084786;28;20021;-62
2023/10/10 11:56:26;;;;;;;1.25;0.88;;;;;;;13.65;68.10;100235.47;5085410;28;20135;-62
2023/10/10 11:58:52;;;;;;;0.57;0.52;;;;;;;13.61;69.31;100230.31;5091510;28;20039;-62
2023/10/10 12:01:47;;;;;;;3.17;0.52;;;;;;;13.54;69.81;100227.91;5091564;28;20033;-62
2023/10/10 12:04:20;;;;;;;0.43;0.40;;;;;;;13.54;70.34;100225.28;5091429;28;20078;-63
2023/10/10 12:06:47;;;;;;;0.40;0.40;;;;;;;13.54;69.77;100214.84;5091447;28;20143;-62
2023/10/10 12:09:18;;;;;;;0.82;0.50;;;;;;;13.41;70.80;100207.31;5091279;28;20107;-62
2023/10/10 12:11:44;;;;;;;1.70;1.05;;;;;;;13.41;71.03;100212.53;5091679;28;20048;-63
2023/10/10 12:14:12;;;;;;;1.50;0.82;;;;;;;13.41;71.39;100207.31;5091315;28;20027;-62
2023/10/10 12:16:37;;;;;;;1.75;0.82;;;;;;;13.38;71.04;100197.81;5091390;28;20029;-61
2023/10/10 12:19:05;;;;;;;0.93;0.70;;;;;;;13.43;71.20;100199.44;5091394;28;20032;-61
2023/10/10 12:21:31;;;;;;;0.52;0.52;;;;;;;13.45;70.91;100188.06;5091190;28;20040;-61
2023/10/10 12:23:57;;;;;;;0.80;0.73;;;;;;;13.40;71.37;100174.31;5091406;28;20421;-62
2023/10/10 12:26:25;;;;;;;1.15;0.90;;;;;;;13.43;70.96;100170.75;5091242;28;20508;-61
2023/10/10 12:28:54;;;;;;;1.20;0.80;;;;;;;13.40;70.97;100166.50;5091365;28;20062;-63
2023/10/10 12:31:21;;;;;;;0.60;0.50;;;;;;;13.39;70.90;100163.00;5091248;28;20048;-62
2023/10/10 12:33:53;;;;;;;0.82;0.63;;;;;;;13.37;71.14;100150.91;5091366;28;20055;-63
2023/10/10 12:36:22;;;;;;;0.65;0.50;;;;;;;13.35;71.36;100161.38;5091200;28;20048;-63
2023/10/10 12:38:48;;;;;;;0.88;0.52;;;;;;;13.32;71.48;100156.22;5091325;28;20040;-62
2023/10/10 12:41:20;;;;;;;1.23;0.80;;;;;;;13.30;71.37;100158.03;5091059;28;20047;-62
2023/10/10 12:43:46;;;;;;;0.40;0.40;;;;;;;13.31;71.08;100151.03;5091092;28;20021;-61
2023/10/10 12:46:16;;;;;;;0.70;0.60;;;;;;;13.24;71.04;100139.91;5091237;28;20032;-61
2023/10/10 12:48:42;;;;;;;1.38;0.80;;;;;;;13.23;71.15;100132.97;5091049;28;20025;-62
2023/10/10 12:51:09;;;;;;;0.50;0.50;;;;;;;13.25;71.12;100128.59;5090866;28;20075;-62
2023/10/10 12:53:39;;;;;;;2.42;0.73;;;;;;;13.22;71.13;100126.06;5091030;28;20023;-62
2023/10/10 12:56:06;;;;;;;0.40;0.40;;;;;;;13.23;71.35;100120.81;5090977;28;20187;-62
2023/10/10 12:58:32;;;;;;;2.30;1.10;;;;;;;13.30;71.68;100113.69;5091181;28;20032;-62
2023/10/10 13:00:58;;;;;;;0.52;0.52;;;;;;;13.37;71.50;100117.03;5090888;28;20084;-62
2023/10/10 13:03:30;;;;;;;0.52;0.47;;;;;;;13.46;71.18;100106.34;5091030;28;20032;-61
2023/10/10 13:06:00;;;;;;;1.52;0.85;;;;;;;13.52;71.10;100094.94;5090933;28;20530;-62
2023/10/10 13:08:47;;;;;;;0.57;0.57;;;;;;;13.50;71.32;100086.25;5089216;28;20043;-61
2023/10/10 13:11:16;;;;;;;0.40;0.40;;;;;;;13.52;71.12;100081.88;5087709;28;20021;-62
2023/10/10 13:13:45;;;;;;;1.52;0.63;;;;;;;13.44;71.04;100073.38;5087706;28;20039;-62
2023/10/10 13:16:25;;;;;;;0.40;0.40;;;;;;;13.43;71.53;100071.66;5069808;28;20020;-62
2023/10/10 13:18:52;;;;;;;1.35;0.80;;;;;;;13.38;71.46;100067.44;5087404;28;20283;-65
2023/10/10 13:21:20;;;;;;;0.85;0.55;;;;;;;13.26;71.96;100079.03;5087316;28;20046;-62
2023/10/10 13:23:49;;;;;;;5.13;0.80;;;;;;;13.17;72.32;100066.22;5087596;28;20447;-61
2023/10/10 13:26:20;;;;;;;0.80;0.60;;;;;;;13.12;72.55;100083.72;5087274;28;20053;-61
2023/10/10 13:28:46;;;;;;;2.10;1.25;;;;;;;12.98;72.95;100078.84;5087674;28;20099;-61
2023/10/10 13:31:16;;;;;;;7.30;0.80;;;;;;;12.80;73.12;100054.06;5087513;28;20033;-62
2023/10/10 13:33:43;;;;;;;0.50;0.50;;;;;;;12.53;74.20;100044.25;5087437;28;20025;-60
2023/10/10 13:36:14;;;;;;;1.02;0.70;;;;;;;12.46;74.58;100061.75;5087034;28;20036;-61
2023/10/10 13:38:47;;;;;;;2.38;1.00;;;;;;;12.25;75.45;100057.88;5087418;28;20082;-61
2023/10/10 13:41:19;;;;;;;1.45;0.82;;;;;;;12.05;76.67;100040.91;5087016;28;20103;-62
2023/10/10 13:43:44;;;;;;;1.17;0.52;;;;;;;11.92;78.16;100044.66;5086961;28;20088;-62
2023/10/10 13:46:10;;;;;;;1.27;1.23;;;;;;;11.79;79.04;100029.25;5094650;22;20057;-63
2023/10/10 13:48:36;;;;;;;2.05;0.93;;;;;;;11.69;79.74;100030.34;5087027;28;20070;-64
2023/10/10 13:51:04;;;;;;;1.48;0.77;;;;;;;11.59;79.71;100020.13;5086605;28;20035;-64
2023/10/10 13:53:31;;;;;;;1.13;0.80;;;;;;;11.51;80.13;100019.41;5086976;28;20032;-66
2023/10/10 13:56:00;;;;;;;2.97;1.67;;;;;;;11.47;81.20;100025.56;5087165;28;20460;-64
2023/10/10 13:58:26;;;;;;;3.00;1.05;;;;;;;11.40;81.41;100020.47;5069022;28;20035;-65
2023/10/10 14:01:13;;;;;;;1.25;0.98;;;;;;;11.37;82.33;100017.06;5087049;28;20033;-67
2023/10/10 14:03:46;;;;;;;2.58;0.80;;;;;;;11.24;82.07;100006.88;5086801;28;20020;-68
2023/10/10 14:06:26;;;;;;;5.38;1.45;;;;;;;11.27;82.65;100012.03;5086586;28;20033;-67
2023/10/10 14:08:51;;;;;;;3.42;1.02;;;;;;;11.20;83.52;100007.81;5086989;28;20021;-66
2023/10/10 14:11:23;;;;;;;1.20;0.70;;;;;;;11.17;83.16;99999.22;5086687;28;20117;-67
2023/10/10 14:13:51;;;;;;;1.33;0.60;;;;;;;11.11;83.69;99995.84;5086693;28;20039;-69
2023/10/10 14:16:18;;;;;;;1.42;1.13;;;;;;;11.11;83.88;99989.78;5068496;28;20027;-68
2023/10/10 14:18:47;;;;;;;1.52;0.90;;;;;;;11.11;83.90;99976.78;5068617;28;20028;-68
2023/10/10 14:21:14;;;;;;;0.82;0.70;;;;;;;11.05;83.76;99977.78;5068061;28;20020;-67
2023/10/10 14:23:40;;;;;;;4.13;0.77;;;;;;;10.99;84.47;99970.09;5068476;28;20024;-66
2023/10/10 14:26:12;;;;;;;0.93;0.70;;;;;;;10.97;85.23;99956.25;5086481;28;20033;-67
2023/10/10 14:28:38;;;;;;;;;;;;;;;11.03;86.17;99962.22;5086928;28;20028;-68
2023/10/10 14:31:03;;;;;;;4.07;0.90;;;;;;;10.98;86.12;99952.78;5068394;28;19954;-66
2023/10/10 14:33:29;;;;;;;0.95;0.80;;;;;;;10.99;85.87;99955.34;5086033;28;20032;-68
2023/10/10 14:35:54;;;;;;;0.82;0.63;;;;;;;10.97;86.14;99951.94;5085907;28;20043;-66
2023/10/10 14:38:19;;;;;;;0.77;0.57;;;;;;;10.96;86.30;99938.97;5086208;28;20028;-68
2023/10/10 14:40:45;;;;;;;1.30;0.82;;;;;;;11.01;86.78;99942.31;5086211;28;20024;-67
2023/10/10 14:43:11;;;;;;;1.02;0.80;;;;;;;11.01;86.59;99943.19;5086074;28;20021;-67
2023/10/10 14:45:42;;;;;;;1.05;0.80;;;;;;;11.06;86.75;99929.25;5085910;28;20075;-67
2023/10/10 14:48:09;;;;;;;2.90;0.97;;;;;;;11.01;87.05;99922.41;5085690;28;20032;-68
2023/10/10 14:50:41;;;;;;;1.77;0.65;;;;;;;10.99;87.89;99920.72;5085765;28;20472;-67
2023/10/10 14:53:09;;;;;;;;;;;;;;;11.04;88.00;99921.47;5086378;28;20036;-67